Radley, Kansas
Current Conditions -  °F | °C
As of 2:15 PM on Thursday 23 Oct 2014 (Local Time) from KPTS Reporting Station
Overcast Overcast  
Wind Chill: 62°   Ceiling: 1100
Heat Index: 62°   Visibility: 10mi
Dew Point: 60°   Wind: 10mph
Humidity: 93%   Direction: 240°WSW
Pressure: 30.11"   Gusts: NA
Location:  37.4268°N, 94.7004°W
Report Text: KPTS 231915Z AUTO 24009KT 10SM OVC011 17/16 A3011 RMK AO2 T01670156
Loading
Personal Weather Stations






























Interactive Weather Map
Tropical Storm Tracking
New forecast layout! Learn more

10-Day Weather Forecast

Advertisements
Track Severe Weather on mobile